sensor_id;sensor_type;location;lat;lon;timestamp;pressure;altitude;pressure_sealevel;temperature;humidity
51099;BME280;37146;48.210;16.234;2023-03-04T00:01:47;99078.28;;;-0.81;98.06
51099;BME280;37146;48.210;16.234;2023-03-04T00:04:14;99074.03;;;-1.16;97.92
51099;BME280;37146;48.210;16.234;2023-03-04T00:06:39;99074.00;;;-1.05;99.11
51099;BME280;37146;48.210;16.234;2023-03-04T00:09:04;99072.31;;;-1.26;97.99
51099;BME280;37146;48.210;16.234;2023-03-04T00:11:30;99075.81;;;-1.19;98.79
51099;BME280;37146;48.210;16.234;2023-03-04T00:13:56;99066.16;;;-1.14;99.07
51099;BME280;37146;48.210;16.234;2023-03-04T00:16:21;99069.66;;;-1.15;100.00
51099;BME280;37146;48.210;16.234;2023-03-04T00:18:46;99073.13;;;-1.05;99.51
51099;BME280;37146;48.210;16.234;2023-03-04T00:21:12;99060.03;;;-1.12;99.58
51099;BME280;37146;48.210;16.234;2023-03-04T00:23:37;99067.88;;;-1.09;99.77
51099;BME280;37146;48.210;16.234;2023-03-04T00:26:02;99067.06;;;-1.23;100.00
51099;BME280;37146;48.210;16.234;2023-03-04T00:28:27;99072.28;;;-1.20;100.00
51099;BME280;37146;48.210;16.234;2023-03-04T00:30:53;99071.53;;;-1.67;100.00
51099;BME280;37146;48.210;16.234;2023-03-04T00:33:18;99076.69;;;-1.28;100.00
51099;BME280;37146;48.210;16.234;2023-03-04T00:35:43;99070.63;;;-1.46;100.00
51099;BME280;37146;48.210;16.234;2023-03-04T00:38:08;99075.91;;;-1.63;100.00
51099;BME280;37146;48.210;16.234;2023-03-04T00:40:34;99064.50;;;-1.46;100.00
51099;BME280;37146;48.210;16.234;2023-03-04T00:42:59;99062.75;;;-1.46;100.00
51099;BME280;37146;48.210;16.234;2023-03-04T00:45:24;99061.03;;;-1.51;100.00
51099;BME280;37146;48.210;16.234;2023-03-04T00:47:50;99063.63;;;-1.48;100.00
51099;BME280;37146;48.210;16.234;2023-03-04T00:50:15;99059.25;;;-1.40;100.00
51099;BME280;37146;48.210;16.234;2023-03-04T00:52:40;99053.09;;;-1.41;100.00
51099;BME280;37146;48.210;16.234;2023-03-04T00:55:06;99052.22;;;-1.36;100.00
51099;BME280;37146;48.210;16.234;2023-03-04T00:57:31;99052.22;;;-1.32;100.00
51099;BME280;37146;48.210;16.234;2023-03-04T00:59:57;99045.22;;;-1.30;100.00
51099;BME280;37146;48.210;16.234;2023-03-04T01:02:22;99038.22;;;-1.37;100.00
51099;BME280;37146;48.210;16.234;2023-03-04T01:04:47;99042.63;;;-1.53;100.00
51099;BME280;37146;48.210;16.234;2023-03-04T01:07:12;99034.75;;;-1.42;100.00
51099;BME280;37146;48.210;16.234;2023-03-04T01:09:37;99031.25;;;-1.47;100.00
51099;BME280;37146;48.210;16.234;2023-03-04T01:12:03;99027.75;;;-1.40;100.00
51099;BME280;37146;48.210;16.234;2023-03-04T01:14:28;99019.00;;;-1.41;100.00
51099;BME280;37146;48.210;16.234;2023-03-04T01:16:53;99018.19;;;-1.58;100.00
51099;BME280;37146;48.210;16.234;2023-03-04T01:19:18;99021.69;;;-1.64;100.00
51099;BME280;37146;48.210;16.234;2023-03-04T01:21:43;99020.78;;;-1.57;100.00
51099;BME280;37146;48.210;16.234;2023-03-04T01:24:09;99015.53;;;-1.47;100.00
51099;BME280;37146;48.210;16.234;2023-03-04T01:26:34;99017.34;;;-1.74;100.00
51099;BME280;37146;48.210;16.234;2023-03-04T01:28:59;99009.47;;;-1.76;100.00
51099;BME280;37146;48.210;16.234;2023-03-04T01:31:25;99011.25;;;-1.78;100.00
51099;BME280;37146;48.210;16.234;2023-03-04T01:33:50;99019.94;;;-1.52;100.00
51099;BME280;37146;48.210;16.234;2023-03-04T01:36:15;99009.38;;;-1.42;100.00
51099;BME280;37146;48.210;16.234;2023-03-04T01:38:40;99006.78;;;-1.40;100.00
51099;BME280;37146;48.210;16.234;2023-03-04T01:41:06;99005.03;;;-1.46;100.00
51099;BME280;37146;48.210;16.234;2023-03-04T01:43:31;99005.00;;;-1.36;100.00
51099;BME280;37146;48.210;16.234;2023-03-04T01:45:58;98998.06;;;-1.53;100.00
51099;BME280;37146;48.210;16.234;2023-03-04T01:48:28;98996.31;;;-1.45;100.00
51099;BME280;37146;48.210;16.234;2023-03-04T01:50:54;98994.50;;;-1.36;100.00
51099;BME280;37146;48.210;16.234;2023-03-04T01:53:21;98994.56;;;-1.53;100.00
51099;BME280;37146;48.210;16.234;2023-03-04T01:55:47;98991.91;;;-1.44;100.00
51099;BME280;37146;48.210;16.234;2023-03-04T01:58:12;98986.63;;;-1.36;100.00
51099;BME280;37146;48.210;16.234;2023-03-04T02:00:37;98986.66;;;-1.40;100.00
51099;BME280;37146;48.210;16.234;2023-03-04T02:03:04;98982.28;;;-1.48;100.00
51099;BME280;37146;48.210;16.234;2023-03-04T02:05:32;98977.09;;;-1.54;100.00
51099;BME280;37146;48.210;16.234;2023-03-04T02:07:58;98968.34;;;-1.58;100.00
51099;BME280;37146;48.210;16.234;2023-03-04T02:10:25;98966.56;;;-1.53;100.00
51099;BME280;37146;48.210;16.234;2023-03-04T02:12:51;98964.84;;;-1.59;100.00
51099;BME280;37146;48.210;16.234;2023-03-04T02:15:16;98962.22;;;-1.52;100.00
51099;BME280;37146;48.210;16.234;2023-03-04T02:17:42;98961.38;;;-1.62;100.00
51099;BME280;37146;48.210;16.234;2023-03-04T02:22:36;98948.31;;;-1.79;100.00
51099;BME280;37146;48.210;16.234;2023-03-04T02:25:06;98953.53;;;-1.72;100.00
51099;BME280;37146;48.210;16.234;2023-03-04T02:27:33;98950.06;;;-1.78;100.00
51099;BME280;37146;48.210;16.234;2023-03-04T02:29:59;98950.09;;;-1.84;100.00
51099;BME280;37146;48.210;16.234;2023-03-04T02:32:24;98955.28;;;-1.74;100.00
51099;BME280;37146;48.210;16.234;2023-03-04T02:34:49;98945.66;;;-1.67;100.00
51099;BME280;37146;48.210;16.234;2023-03-04T02:37:15;98945.59;;;-1.51;100.00
51099;BME280;37146;48.210;16.234;2023-03-04T02:39:41;98937.72;;;-1.53;100.00
51099;BME280;37146;48.210;16.234;2023-03-04T02:42:07;98935.09;;;-1.44;100.00
51099;BME280;37146;48.210;16.234;2023-03-04T02:44:34;98927.25;;;-1.59;100.00
51099;BME280;37146;48.210;16.234;2023-03-04T02:47:00;98926.41;;;-1.66;100.00
51099;BME280;37146;48.210;16.234;2023-03-04T02:49:26;98918.59;;;-1.77;100.00
51099;BME280;37146;48.210;16.234;2023-03-04T02:51:52;98911.63;;;-1.84;100.00
51099;BME280;37146;48.210;16.234;2023-03-04T02:54:22;98911.63;;;-1.84;100.00
51099;BME280;37146;48.210;16.234;2023-03-04T02:56:48;98901.09;;;-1.75;100.00
51099;BME280;37146;48.210;16.234;2023-03-04T02:59:14;98890.63;;;-1.78;100.00
51099;BME280;37146;48.210;16.234;2023-03-04T03:01:39;98905.47;;;-1.78;100.00
51099;BME280;37146;48.210;16.234;2023-03-04T03:04:04;98893.25;;;-1.84;100.00
51099;BME280;37146;48.210;16.234;2023-03-04T03:06:30;98897.66;;;-1.89;100.00
51099;BME280;37146;48.210;16.234;2023-03-04T03:08:55;98888.88;;;-1.80;100.00
51099;BME280;37146;48.210;16.234;2023-03-04T03:11:20;98885.44;;;-1.93;100.00
51099;BME280;37146;48.210;16.234;2023-03-04T03:13:45;98891.56;;;-1.91;100.00
51099;BME280;37146;48.210;16.234;2023-03-04T03:16:10;98874.94;;;-1.96;100.00
51099;BME280;37146;48.210;16.234;2023-03-04T03:18:36;98879.31;;;-1.92;100.00
51099;BME280;37146;48.210;16.234;2023-03-04T03:21:01;98873.19;;;-1.94;100.00
51099;BME280;37146;48.210;16.234;2023-03-04T03:23:26;98870.63;;;-2.07;100.00
51099;BME280;37146;48.210;16.234;2023-03-04T03:25:51;98866.22;;;-1.89;100.00
51099;BME280;37146;48.210;16.234;2023-03-04T03:28:16;98860.97;;;-1.89;100.00
51099;BME280;37146;48.210;16.234;2023-03-04T03:30:42;98861.84;;;-1.90;100.00
51099;BME280;37146;48.210;16.234;2023-03-04T03:33:07;98853.88;;;-1.68;100.00
51099;BME280;37146;48.210;16.234;2023-03-04T03:35:32;98849.53;;;-1.74;100.00
51099;BME280;37146;48.210;16.234;2023-03-04T03:37:58;98860.78;;;-1.53;100.00
51099;BME280;37146;48.210;16.234;2023-03-04T03:40:23;98851.13;;;-1.42;100.00
51099;BME280;37146;48.210;16.234;2023-03-04T03:42:48;98845.94;;;-1.51;100.00
51099;BME280;37146;48.210;16.234;2023-03-04T03:45:13;98837.13;;;-1.47;100.00
51099;BME280;37146;48.210;16.234;2023-03-04T03:47:39;98833.53;;;-1.29;100.00
51099;BME280;37146;48.210;16.234;2023-03-04T03:50:04;98836.13;;;-1.23;100.00
51099;BME280;37146;48.210;16.234;2023-03-04T03:52:29;98832.59;;;-1.19;100.00
51099;BME280;37146;48.210;16.234;2023-03-04T03:54:55;98822.72;;;-0.84;100.00
51099;BME280;37146;48.210;16.234;2023-03-04T03:57:20;98824.03;;;-0.41;100.00
51099;BME280;37146;48.210;16.234;2023-03-04T03:59:45;98810.91;;;-0.40;100.00
51099;BME280;37146;48.210;16.234;2023-03-04T04:02:10;98811.63;;;-0.24;100.00
51099;BME280;37146;48.210;16.234;2023-03-04T04:04:35;98807.75;;;0.05;100.00
51099;BME280;37146;48.210;16.234;2023-03-04T04:07:01;98801.41;;;0.23;100.00
51099;BME280;37146;48.210;16.234;2023-03-04T04:09:26;98806.31;;;0.50;100.00
51099;BME280;37146;48.210;16.234;2023-03-04T04:11:51;98800.94;;;0.56;100.00
51099;BME280;37146;48.210;16.234;2023-03-04T04:14:16;98787.44;;;0.79;100.00
51099;BME280;37146;48.210;16.234;2023-03-04T04:16:42;98794.16;;;0.99;100.00
51099;BME280;37146;48.210;16.234;2023-03-04T04:19:09;98778.06;;;1.16;100.00
51099;BME280;37146;48.210;16.234;2023-03-04T04:21:34;98783.88;;;1.33;100.00
51099;BME280;37146;48.210;16.234;2023-03-04T04:23:59;98783.50;;;1.55;100.00
51099;BME280;37146;48.210;16.234;2023-03-04T04:26:24;98775.81;;;1.88;100.00
51099;BME280;37146;48.210;16.234;2023-03-04T04:28:50;98770.31;;;2.00;100.00
51099;BME280;37146;48.210;16.234;2023-03-04T04:31:15;98770.53;;;2.32;100.00
51099;BME280;37146;48.210;16.234;2023-03-04T04:33:40;98782.69;;;2.39;100.00
51099;BME280;37146;48.210;16.234;2023-03-04T04:36:05;98774.59;;;2.47;100.00
51099;BME280;37146;48.210;16.234;2023-03-04T04:38:31;98765.44;;;2.63;100.00
51099;BME280;37146;48.210;16.234;2023-03-04T04:40:57;98773.38;;;2.62;100.00
51099;BME280;37146;48.210;16.234;2023-03-04T04:43:22;98764.44;;;2.68;100.00
51099;BME280;37146;48.210;16.234;2023-03-04T04:45:48;98768.75;;;2.72;100.00
51099;BME280;37146;48.210;16.234;2023-03-04T04:48:13;98763.91;;;2.91;100.00
51099;BME280;37146;48.210;16.234;2023-03-04T04:50:38;98771.94;;;2.85;100.00
51099;BME280;37146;48.210;16.234;2023-03-04T04:53:03;98774.38;;;2.94;100.00
51099;BME280;37146;48.210;16.234;2023-03-04T04:55:29;98765.34;;;3.03;100.00
51099;BME280;37146;48.210;16.234;2023-03-04T04:57:54;98767.94;;;3.06;100.00
51099;BME280;37146;48.210;16.234;2023-03-04T05:00:19;98757.59;;;2.97;100.00
51099;BME280;37146;48.210;16.234;2023-03-04T05:02:45;98753.53;;;3.18;100.00
51099;BME280;37146;48.210;16.234;2023-03-04T05:05:10;98753.50;;;3.19;100.00
51099;BME280;37146;48.210;16.234;2023-03-04T05:07:35;98753.59;;;3.15;100.00
51099;BME280;37146;48.210;16.234;2023-03-04T05:10:00;98759.53;;;3.24;100.00
51099;BME280;37146;48.210;16.234;2023-03-04T05:12:26;98763.34;;;3.13;100.00
51099;BME280;37146;48.210;16.234;2023-03-04T05:14:51;98749.91;;;3.20;100.00
51099;BME280;37146;48.210;16.234;2023-03-04T05:17:16;98756.09;;;3.21;100.00
51099;BME280;37146;48.210;16.234;2023-03-04T05:19:41;98746.94;;;3.34;100.00
51099;BME280;37146;48.210;16.234;2023-03-04T05:22:07;98751.59;;;3.24;100.00
51099;BME280;37146;48.210;16.234;2023-03-04T05:24:32;98744.69;;;3.19;100.00
51099;BME280;37146;48.210;16.234;2023-03-04T05:26:58;98748.63;;;3.37;100.00
51099;BME280;37146;48.210;16.234;2023-03-04T05:29:24;98751.09;;;3.43;100.00
51099;BME280;37146;48.210;16.234;2023-03-04T05:31:49;98750.75;;;3.57;99.98
51099;BME280;37146;48.210;16.234;2023-03-04T05:34:14;98750.75;;;3.55;99.94
51099;BME280;37146;48.210;16.234;2023-03-04T05:36:39;98758.63;;;3.59;99.50
51099;BME280;37146;48.210;16.234;2023-03-04T05:39:04;98760.41;;;3.58;99.29
51099;BME280;37146;48.210;16.234;2023-03-04T05:41:30;98766.75;;;3.52;99.71
51099;BME280;37146;48.210;16.234;2023-03-04T05:43:55;98759.78;;;3.48;99.78
51099;BME280;37146;48.210;16.234;2023-03-04T05:46:20;98760.44;;;3.56;99.51
51099;BME280;37146;48.210;16.234;2023-03-04T05:48:49;98754.94;;;3.64;98.42
51099;BME280;37146;48.210;16.234;2023-03-04T05:51:15;98759.25;;;3.68;98.38
51099;BME280;37146;48.210;16.234;2023-03-04T05:53:40;98771.47;;;3.72;98.20
51099;BME280;37146;48.210;16.234;2023-03-04T05:56:09;98759.13;;;3.73;98.08
51099;BME280;37146;48.210;16.234;2023-03-04T05:58:34;98760.66;;;3.80;97.19
51099;BME280;37146;48.210;16.234;2023-03-04T06:01:00;98771.19;;;3.83;97.52
51099;BME280;37146;48.210;16.234;2023-03-04T06:03:25;98765.00;;;3.83;97.37
51099;BME280;37146;48.210;16.234;2023-03-04T06:05:50;98758.94;;;3.79;97.36
51099;BME280;37146;48.210;16.234;2023-03-04T06:08:15;98778.97;;;3.88;96.85
51099;BME280;37146;48.210;16.234;2023-03-04T06:10:40;98776.84;;;4.01;95.95
51099;BME280;37146;48.210;16.234;2023-03-04T06:13:06;98775.16;;;3.98;95.69
51099;BME280;37146;48.210;16.234;2023-03-04T06:15:31;98778.78;;;3.94;96.13
51099;BME280;37146;48.210;16.234;2023-03-04T06:17:57;98776.91;;;3.98;96.01
51099;BME280;37146;48.210;16.234;2023-03-04T06:20:22;98783.94;;;4.00;95.62
51099;BME280;37146;48.210;16.234;2023-03-04T06:22:47;98779.56;;;3.98;95.95
51099;BME280;37146;48.210;16.234;2023-03-04T06:25:13;98795.44;;;3.98;95.96
51099;BME280;37146;48.210;16.234;2023-03-04T06:27:38;98784.50;;;4.10;94.82
51099;BME280;37146;48.210;16.234;2023-03-04T06:30:03;98778.44;;;4.07;95.01
51099;BME280;37146;48.210;16.234;2023-03-04T06:32:29;98793.28;;;4.12;94.77
51099;BME280;37146;48.210;16.234;2023-03-04T06:34:54;98793.00;;;4.22;93.85
51099;BME280;37146;48.210;16.234;2023-03-04T06:37:19;98788.41;;;4.28;93.49
51099;BME280;37146;48.210;16.234;2023-03-04T06:39:44;98790.06;;;4.32;92.95
51099;BME280;37146;48.210;16.234;2023-03-04T06:42:10;98797.78;;;4.40;92.39
51099;BME280;37146;48.210;16.234;2023-03-04T06:44:35;98792.47;;;4.40;92.70
51099;BME280;37146;48.210;16.234;2023-03-04T06:47:00;98793.72;;;4.57;91.58
51099;BME280;37146;48.210;16.234;2023-03-04T06:49:26;98800.78;;;4.58;92.37
51099;BME280;37146;48.210;16.234;2023-03-04T06:51:51;98794.56;;;4.59;90.63
51099;BME280;37146;48.210;16.234;2023-03-04T06:54:17;98810.22;;;4.67;90.38
51099;BME280;37146;48.210;16.234;2023-03-04T06:56:42;98795.78;;;4.75;90.20
51099;BME280;37146;48.210;16.234;2023-03-04T06:59:07;98805.84;;;4.94;89.07
51099;BME280;37146;48.210;16.234;2023-03-04T07:01:32;98804.09;;;5.20;87.99
51099;BME280;37146;48.210;16.234;2023-03-04T07:03:59;98793.16;;;5.31;86.95
51099;BME280;37146;48.210;16.234;2023-03-04T07:06:25;98800.72;;;5.41;86.20
51099;BME280;37146;48.210;16.234;2023-03-04T07:08:51;98797.41;;;5.62;84.36
51099;BME280;37146;48.210;16.234;2023-03-04T07:11:16;98806.34;;;5.59;84.55
51099;BME280;37146;48.210;16.234;2023-03-04T07:13:42;98794.16;;;5.79;83.15
51099;BME280;37146;48.210;16.234;2023-03-04T07:16:09;98802.06;;;6.29;81.11
51099;BME280;37146;48.210;16.234;2023-03-04T07:18:35;98802.31;;;6.47;80.31
51099;BME280;37146;48.210;16.234;2023-03-04T07:21:00;98804.91;;;6.94;77.68
51099;BME280;37146;48.210;16.234;2023-03-04T07:23:26;98803.75;;;7.00;77.05
51099;BME280;37146;48.210;16.234;2023-03-04T07:25:51;98792.00;;;7.49;75.21
51099;BME280;37146;48.210;16.234;2023-03-04T07:28:16;98804.03;;;7.16;74.79
51099;BME280;37146;48.210;16.234;2023-03-04T07:30:42;98796.09;;;7.57;73.75
51099;BME280;37146;48.210;16.234;2023-03-04T07:33:07;98804.72;;;7.83;72.04
51099;BME280;37146;48.210;16.234;2023-03-04T07:35:32;98788.84;;;7.61;72.25
51099;BME280;37146;48.210;16.234;2023-03-04T07:37:58;98790.34;;;7.87;71.34
51099;BME280;37146;48.210;16.234;2023-03-04T07:40:23;98783.00;;;8.53;69.02
51099;BME280;37146;48.210;16.234;2023-03-04T07:42:49;98786.94;;;8.63;67.31
51099;BME280;37146;48.210;16.234;2023-03-04T07:45:14;98778.31;;;9.49;64.19
51099;BME280;37146;48.210;16.234;2023-03-04T07:47:39;98788.03;;;9.68;63.56
51099;BME280;37146;48.210;16.234;2023-03-04T07:50:05;98771.78;;;9.90;63.26
51099;BME280;37146;48.210;16.234;2023-03-04T07:52:30;98790.47;;;9.72;62.82
51099;BME280;37146;48.210;16.234;2023-03-04T07:54:56;98789.13;;;9.81;62.42
51099;BME280;37146;48.210;16.234;2023-03-04T07:57:21;98790.91;;;10.97;59.04
51099;BME280;37146;48.210;16.234;2023-03-04T07:59:46;98783.25;;;10.26;60.89
51099;BME280;37146;48.210;16.234;2023-03-04T08:02:11;98797.44;;;10.26;59.98
51099;BME280;37146;48.210;16.234;2023-03-04T08:04:37;98777.44;;;11.45;57.77
51099;BME280;37146;48.210;16.234;2023-03-04T08:07:02;98789.16;;;11.28;57.30
51099;BME280;37146;48.210;16.234;2023-03-04T08:09:27;98788.09;;;11.31;57.79
51099;BME280;37146;48.210;16.234;2023-03-04T08:11:53;98787.88;;;11.04;56.68
51099;BME280;37146;48.210;16.234;2023-03-04T08:14:18;98789.00;;;11.16;57.15
51099;BME280;37146;48.210;16.234;2023-03-04T08:16:43;98775.31;;;11.36;55.93
51099;BME280;37146;48.210;16.234;2023-03-04T08:19:09;98789.16;;;11.28;56.36
51099;BME280;37146;48.210;16.234;2023-03-04T08:21:34;98785.88;;;11.84;54.07
51099;BME280;37146;48.210;16.234;2023-03-04T08:24:00;98780.72;;;11.96;54.86
51099;BME280;37146;48.210;16.234;2023-03-04T08:26:32;98798.81;;;11.15;55.81
51099;BME280;37146;48.210;16.234;2023-03-04T08:29:02;98807.91;;;10.96;55.92
51099;BME280;37146;48.210;16.234;2023-03-04T08:31:28;98804.56;;;10.77;57.26
51099;BME280;37146;48.210;16.234;2023-03-04T08:33:53;98797.13;;;11.44;54.95
51099;BME280;37146;48.210;16.234;2023-03-04T08:36:19;98793.75;;;12.02;54.13
51099;BME280;37146;48.210;16.234;2023-03-04T08:38:45;98805.44;;;11.40;54.13
51099;BME280;37146;48.210;16.234;2023-03-04T08:41:10;98802.59;;;12.33;52.59
51099;BME280;37146;48.210;16.234;2023-03-04T08:43:36;98789.50;;;11.83;53.01
51099;BME280;37146;48.210;16.234;2023-03-04T08:46:01;98792.28;;;11.82;52.76
51099;BME280;37146;48.210;16.234;2023-03-04T08:48:27;98791.13;;;12.45;52.72
51099;BME280;37146;48.210;16.234;2023-03-04T08:50:52;98793.69;;;13.30;49.00
51099;BME280;37146;48.210;16.234;2023-03-04T08:53:18;98788.41;;;12.60;49.64
51099;BME280;37146;48.210;16.234;2023-03-04T08:55:44;98780.31;;;13.16;48.37
51099;BME280;37146;48.210;16.234;2023-03-04T08:58:09;98782.28;;;12.99;48.58
51099;BME280;37146;48.210;16.234;2023-03-04T09:00:36;98793.09;;;13.40;47.83
51099;BME280;37146;48.210;16.234;2023-03-04T09:03:01;98789.75;;;13.76;45.37
51099;BME280;37146;48.210;16.234;2023-03-04T09:05:27;98774.94;;;13.16;46.54
51099;BME280;37146;48.210;16.234;2023-03-04T09:07:53;98781.22;;;13.02;46.63
51099;BME280;37146;48.210;16.234;2023-03-04T09:10:18;98788.69;;;13.11;45.10
51099;BME280;37146;48.210;16.234;2023-03-04T09:12:43;98784.81;;;12.88;46.47
51099;BME280;37146;48.210;16.234;2023-03-04T09:15:09;98783.91;;;13.02;44.14
51099;BME280;37146;48.210;16.234;2023-03-04T09:17:34;98791.56;;;13.08;44.22
51099;BME280;37146;48.210;16.234;2023-03-04T09:19:59;98789.69;;;13.51;41.88
51099;BME280;37146;48.210;16.234;2023-03-04T09:22:24;98779.41;;;13.70;41.80
51099;BME280;37146;48.210;16.234;2023-03-04T09:24:49;98786.13;;;14.16;40.59
51099;BME280;37146;48.210;16.234;2023-03-04T09:27:15;98774.25;;;14.45;38.36
51099;BME280;37146;48.210;16.234;2023-03-04T09:29:40;98780.94;;;14.52;38.10
51099;BME280;37146;48.210;16.234;2023-03-04T09:32:07;98776.63;;;14.36;37.78
51099;BME280;37146;48.210;16.234;2023-03-04T09:34:32;98781.22;;;15.35;36.00
51099;BME280;37146;48.210;16.234;2023-03-04T09:36:57;98772.75;;;13.76;38.03
51099;BME280;37146;48.210;16.234;2023-03-04T09:39:22;98765.16;;;14.09;37.98
51099;BME280;37146;48.210;16.234;2023-03-04T09:41:48;98780.09;;;15.61;35.01
51099;BME280;37146;48.210;16.234;2023-03-04T09:44:27;98765.34;;;14.31;37.46
51099;BME280;37146;48.210;16.234;2023-03-04T09:46:54;98770.81;;;14.30;37.53
51099;BME280;37146;48.210;16.234;2023-03-04T09:49:22;98776.50;;;15.50;35.37
51099;BME280;37146;48.210;16.234;2023-03-04T09:59:55;98766.31;;;14.93;35.09
51099;BME280;37146;48.210;16.234;2023-03-04T10:02:26;98756.78;;;15.49;33.73
51099;BME280;37146;48.210;16.234;2023-03-04T10:04:55;98762.44;;;16.84;32.73
51099;BME280;37146;48.210;16.234;2023-03-04T10:07:24;98755.31;;;15.21;34.43
51099;BME280;37146;48.210;16.234;2023-03-04T10:09:55;98768.66;;;14.98;34.66
51099;BME280;37146;48.210;16.234;2023-03-04T10:12:24;98764.44;;;13.26;36.57
51099;BME280;37146;48.210;16.234;2023-03-04T10:14:58;98759.84;;;14.33;35.85
51099;BME280;37146;48.210;16.234;2023-03-04T10:24:56;98755.53;;;14.69;33.38
51099;BME280;37146;48.210;16.234;2023-03-04T10:27:21;98742.25;;;15.03;33.00
51099;BME280;37146;48.210;16.234;2023-03-04T10:29:48;98735.16;;;13.89;34.04
51099;BME280;37146;48.210;16.234;2023-03-04T10:32:15;98735.66;;;15.32;33.77
51099;BME280;37146;48.210;16.234;2023-03-04T10:34:45;98728.84;;;15.86;32.40
51099;BME280;37146;48.210;16.234;2023-03-04T10:37:12;98711.06;;;15.12;33.29
51099;BME280;37146;48.210;16.234;2023-03-04T10:39:44;98712.66;;;15.39;32.43
51099;BME280;37146;48.210;16.234;2023-03-04T10:44:41;98721.69;;;14.65;34.14
51099;BME280;37146;48.210;16.234;2023-03-04T10:47:09;98696.50;;;15.50;33.80
51099;BME280;37146;48.210;16.234;2023-03-04T10:49:58;98703.41;;;15.66;34.21
51099;BME280;37146;48.210;16.234;2023-03-04T10:54:54;98690.97;;;15.40;34.26
51099;BME280;37146;48.210;16.234;2023-03-04T10:57:32;98687.97;;;15.21;34.60
51099;BME280;37146;48.210;16.234;2023-03-04T11:00:00;98686.28;;;16.46;32.99
51099;BME280;37146;48.210;16.234;2023-03-04T11:04:54;98683.91;;;16.76;32.44
51099;BME280;37146;48.210;16.234;2023-03-04T11:07:23;98691.44;;;16.93;32.15
51099;BME280;37146;48.210;16.234;2023-03-04T11:09:49;98674.97;;;15.61;32.89
51099;BME280;37146;48.210;16.234;2023-03-04T11:12:16;98669.44;;;15.52;33.87
51099;BME280;37146;48.210;16.234;2023-03-04T11:14:52;98680.97;;;15.54;34.64
51099;BME280;37146;48.210;16.234;2023-03-04T11:17:25;98675.94;;;14.89;36.30
51099;BME280;37146;48.210;16.234;2023-03-04T11:19:59;98671.56;;;14.51;35.91
51099;BME280;37146;48.210;16.234;2023-03-04T11:22:28;98677.38;;;14.07;36.16
51099;BME280;37146;48.210;16.234;2023-03-04T11:25:00;98676.44;;;13.04;37.42
51099;BME280;37146;48.210;16.234;2023-03-04T11:30:03;98674.38;;;12.94;38.89
51099;BME280;37146;48.210;16.234;2023-03-04T11:32:38;98671.91;;;12.49;39.23
51099;BME280;37146;48.210;16.234;2023-03-04T11:35:17;98667.72;;;12.45;38.85
51099;BME280;37146;48.210;16.234;2023-03-04T11:37:46;98653.16;;;12.35;39.56
51099;BME280;37146;48.210;16.234;2023-03-04T11:40:20;98641.16;;;11.84;39.56
51099;BME280;37146;48.210;16.234;2023-03-04T11:45:15;98653.63;;;12.00;38.67
51099;BME280;37146;48.210;16.234;2023-03-04T13:58:13;98563.22;;;10.25;46.13
51099;BME280;37146;48.210;16.234;2023-03-04T14:00:48;98553.06;;;10.62;46.45
51099;BME280;37146;48.210;16.234;2023-03-04T14:03:18;98550.72;;;10.72;46.01
51099;BME280;37146;48.210;16.234;2023-03-04T14:05:44;98557.09;;;10.70;45.68
51099;BME280;37146;48.210;16.234;2023-03-04T14:08:16;98546.97;;;10.75;44.92
51099;BME280;37146;48.210;16.234;2023-03-04T14:10:42;98542.38;;;10.62;45.38
51099;BME280;37146;48.210;16.234;2023-03-04T14:13:08;98543.34;;;10.76;45.48
51099;BME280;37146;48.210;16.234;2023-03-04T14:15:33;98548.53;;;10.93;45.53
51099;BME280;37146;48.210;16.234;2023-03-04T14:18:03;98539.06;;;10.88;45.03
51099;BME280;37146;48.210;16.234;2023-03-04T14:20:30;98534.72;;;10.56;43.92
51099;BME280;37146;48.210;16.234;2023-03-04T14:22:56;98542.59;;;10.74;44.27
51099;BME280;37146;48.210;16.234;2023-03-04T14:27:47;98524.81;;;10.58;44.59
51099;BME280;37146;48.210;16.234;2023-03-04T14:30:22;98513.97;;;10.29;45.09
51099;BME280;37146;48.210;16.234;2023-03-04T14:32:48;98520.94;;;10.32;45.07
51099;BME280;37146;48.210;16.234;2023-03-04T14:35:18;98512.34;;;10.27;44.27
51099;BME280;37146;48.210;16.234;2023-03-04T14:40:22;98526.31;;;10.16;44.54
51099;BME280;37146;48.210;16.234;2023-03-04T14:42:50;98505.84;;;10.31;44.92
51099;BME280;37146;48.210;16.234;2023-03-04T14:45:19;98518.63;;;10.26;44.89
51099;BME280;37146;48.210;16.234;2023-03-04T14:47:45;98510.22;;;10.01;44.81
51099;BME280;37146;48.210;16.234;2023-03-04T14:50:13;98502.00;;;10.20;45.79
51099;BME280;37146;48.210;16.234;2023-03-04T14:52:40;98519.66;;;10.39;44.94
51099;BME280;37146;48.210;16.234;2023-03-04T14:57:35;98522.66;;;10.33;44.47
51099;BME280;37146;48.210;16.234;2023-03-04T15:02:59;98519.47;;;10.26;44.73
51099;BME280;37146;48.210;16.234;2023-03-04T15:05:34;98529.59;;;10.21;46.08
51099;BME280;37146;48.210;16.234;2023-03-04T15:10:35;98532.47;;;10.02;46.48
51099;BME280;37146;48.210;16.234;2023-03-04T15:13:02;98534.00;;;10.06;46.74
51099;BME280;37146;48.210;16.234;2023-03-04T15:15:32;98532.34;;;10.03;46.42
51099;BME280;37146;48.210;16.234;2023-03-04T15:18:02;98537.97;;;9.99;46.44
51099;BME280;37146;48.210;16.234;2023-03-04T15:20:29;98537.47;;;9.92;47.74
51099;BME280;37146;48.210;16.234;2023-03-04T15:22:56;98546.94;;;9.82;46.96
51099;BME280;37146;48.210;16.234;2023-03-04T15:25:22;98553.03;;;9.52;47.08
51099;BME280;37146;48.210;16.234;2023-03-04T15:27:48;98570.84;;;9.35;47.00
51099;BME280;37146;48.210;16.234;2023-03-04T15:32:41;98576.06;;;9.21;47.89
51099;BME280;37146;48.210;16.234;2023-03-04T15:35:13;98574.56;;;9.15;48.22
51099;BME280;37146;48.210;16.234;2023-03-04T15:37:39;98576.00;;;8.70;49.23
51099;BME280;37146;48.210;16.234;2023-03-04T15:40:05;98573.94;;;8.40;49.84
51099;BME280;37146;48.210;16.234;2023-03-04T15:42:32;98577.00;;;8.49;50.10